createdAt,value
2022-11-05T00:00:38.674Z,99211.77
2022-11-05T00:03:25.415Z,99226.14
2022-11-05T00:06:12.498Z,99239.23
2022-11-05T00:08:59.526Z,99247.13
2022-11-05T00:11:47.002Z,99250.06
2022-11-05T00:14:33.429Z,99248.11
2022-11-05T00:17:00.791Z,99250.73
2022-11-05T00:19:28.026Z,99259.41
2022-11-05T00:22:13.730Z,99261.30
2022-11-05T00:24:59.699Z,99268.01
2022-11-05T00:27:26.971Z,99266.95
2022-11-05T00:29:54.332Z,99273.20
2022-11-05T00:32:23.314Z,99272.33
2022-11-05T00:34:50.770Z,99273.73
2022-11-05T00:37:18.031Z,99273.54
2022-11-05T00:39:45.270Z,99280.12
2022-11-05T00:42:34.030Z,99285.42
2022-11-05T00:45:01.512Z,99294.16
2022-11-05T00:47:47.908Z,99294.70
2022-11-05T00:50:15.250Z,99298.90
2022-11-05T00:53:01.950Z,99301.52
2022-11-05T00:55:39.325Z,99305.23
2022-11-05T00:58:21.393Z,99314.67
2022-11-05T01:00:57.126Z,99319.98
2022-11-05T01:03:48.845Z,99321.70
2022-11-05T01:06:18.740Z,99321.61
2022-11-05T01:08:46.809Z,99333.80
2022-11-05T01:11:37.503Z,99335.33
2022-11-05T01:14:08.053Z,99339.75
2022-11-05T01:16:35.739Z,99349.94
2022-11-05T01:19:04.790Z,99363.36
2022-11-05T01:21:32.337Z,99363.17
2022-11-05T01:23:59.478Z,99363.73
2022-11-05T01:26:27.354Z,99361.42
2022-11-05T01:28:56.421Z,99359.80
2022-11-05T01:31:24.317Z,99360.19
2022-11-05T01:33:51.799Z,99364.75
2022-11-05T01:36:19.550Z,99364.50
2022-11-05T01:38:46.994Z,99369.38
2022-11-05T01:41:14.152Z,99375.52
2022-11-05T01:43:51.935Z,99375.80
2022-11-05T01:46:30.371Z,99376.02
2022-11-05T01:49:04.436Z,99379.57
2022-11-05T01:51:31.930Z,99382.06
2022-11-05T01:54:00.412Z,99381.86
2022-11-05T01:56:32.627Z,99383.08
2022-11-05T01:59:04.334Z,99387.88
2022-11-05T02:01:32.300Z,99385.59
2022-11-05T02:04:03.236Z,99389.91
2022-11-05T02:06:33.552Z,99391.89
2022-11-05T02:09:28.654Z,99388.42
2022-11-05T02:11:56.036Z,99389.91
2022-11-05T02:14:23.679Z,99390.02
2022-11-05T02:17:00.141Z,99398.07
2022-11-05T02:19:27.414Z,99402.88
2022-11-05T02:21:57.824Z,99408.42
2022-11-05T02:24:43.409Z,99413.54
2022-11-05T02:27:19.108Z,99412.80
2022-11-05T02:29:55.330Z,99420.52
2022-11-05T02:32:53.491Z,99422.77
2022-11-05T02:35:39.689Z,99432.70
2022-11-05T02:38:14.121Z,99438.59
2022-11-05T02:40:55.510Z,99442.69
2022-11-05T02:43:28.577Z,99444.30
2022-11-05T02:46:31.270Z,99456.30
2022-11-05T02:49:13.893Z,99462.59
2022-11-05T02:51:44.351Z,99469.30
2022-11-05T02:54:31.735Z,99465.38
2022-11-05T02:56:59.804Z,99467.45
2022-11-05T02:59:27.166Z,99469.17
2022-11-05T03:01:54.962Z,99474.34
2022-11-05T03:04:23.251Z,99484.27
2022-11-05T03:07:31.210Z,99489.02
2022-11-05T03:10:03.271Z,99496.56
2022-11-05T03:12:51.930Z,99494.42
2022-11-05T03:15:43.682Z,99489.52
2022-11-05T03:18:49.412Z,99489.04
2022-11-05T03:21:28.230Z,99501.05
2022-11-05T03:24:06.464Z,99514.60
2022-11-05T03:26:46.195Z,99520.46
2022-11-05T03:29:19.351Z,99526.71
2022-11-05T03:31:48.833Z,99530.92
2022-11-05T03:34:18.091Z,99536.14
2022-11-05T03:36:49.846Z,99538.39
2022-11-05T03:39:22.411Z,99541.73
2022-11-05T03:41:52.742Z,99548.08
2022-11-05T03:44:26.637Z,99554.90
2022-11-05T03:46:57.570Z,99566.52
2022-11-05T03:49:35.168Z,99572.70
2022-11-05T03:52:07.358Z,99574.45
2022-11-05T03:54:35.120Z,99573.17
2022-11-05T03:57:09.835Z,99580.52
2022-11-05T03:59:45.394Z,99575.23
2022-11-05T04:02:14.452Z,99577.48
2022-11-05T04:04:42.251Z,99583.27
2022-11-05T04:07:29.375Z,99590.03
2022-11-05T04:10:15.850Z,99600.16
2022-11-05T04:13:02.273Z,99606.98
2022-11-05T04:15:55.817Z,99617.98
2022-11-05T04:18:24.585Z,99621.20
2022-11-05T04:21:10.416Z,99623.55
2022-11-05T04:23:56.263Z,99614.86
2022-11-05T04:26:23.710Z,99618.38
2022-11-05T04:29:10.065Z,99623.98
2022-11-05T04:31:38.133Z,99627.13
2022-11-05T04:34:05.434Z,99629.33
2022-11-05T04:36:32.630Z,99629.60
2022-11-05T04:38:59.870Z,99633.44
2022-11-05T04:41:27.010Z,99636.74
2022-11-05T04:43:54.172Z,99633.96
2022-11-05T04:46:21.318Z,99638.81
2022-11-05T04:48:48.403Z,99634.98
2022-11-05T04:51:15.815Z,99636.96
2022-11-05T04:53:42.969Z,99640.09
2022-11-05T04:56:10.941Z,99640.69
2022-11-05T04:58:44.641Z,99644.27
2022-11-05T05:01:29.907Z,99646.23
2022-11-05T05:03:57.057Z,99647.09
2022-11-05T05:06:24.418Z,99660.38
2022-11-05T05:08:51.980Z,99664.12
2022-11-05T05:11:21.915Z,99668.86
2022-11-05T05:13:49.831Z,99673.73
2022-11-05T05:16:23.982Z,99674.33
2022-11-05T05:18:51.754Z,99672.61
2022-11-05T05:21:39.193Z,99673.52
2022-11-05T05:24:09.032Z,99668.36
2022-11-05T05:26:38.471Z,99666.55
2022-11-05T05:29:07.279Z,99664.67
2022-11-05T05:31:34.824Z,99661.66
2022-11-05T05:34:02.392Z,99660.21
2022-11-05T05:36:29.737Z,99654.40
2022-11-05T05:38:56.788Z,99657.61
2022-11-05T05:41:24.339Z,99663.41
2022-11-05T05:43:51.487Z,99665.48
2022-11-05T05:46:19.939Z,99672.89
2022-11-05T05:48:51.850Z,99677.80
2022-11-05T05:51:20.017Z,99695.83
2022-11-05T05:53:47.271Z,99705.42
2022-11-05T05:56:15.463Z,99710.89
2022-11-05T05:58:42.682Z,99716.23
2022-11-05T06:01:18.634Z,99717.86
2022-11-05T06:03:47.651Z,99723.09
2022-11-05T06:06:15.612Z,99725.73
2022-11-05T06:08:43.274Z,99731.40
2022-11-05T06:11:10.451Z,99736.72
2022-11-05T06:13:38.213Z,99740.83
2022-11-05T06:16:07.486Z,99749.05
2022-11-05T06:18:35.152Z,99754.63
2022-11-05T06:21:06.727Z,99760.60
2022-11-05T06:23:35.141Z,99768.69
2022-11-05T06:26:02.947Z,99776.95
2022-11-05T06:28:30.414Z,99789.06
2022-11-05T06:30:58.249Z,99791.93
2022-11-05T06:33:26.947Z,99795.89
2022-11-05T06:35:54.812Z,99798.85
2022-11-05T06:38:21.955Z,99805.04
2022-11-05T06:40:49.130Z,99809.68
2022-11-05T06:43:16.874Z,99808.03
2022-11-05T06:45:44.123Z,99804.67
2022-11-05T06:48:11.289Z,99803.83
2022-11-05T06:50:38.652Z,99805.44
2022-11-05T06:53:05.887Z,99814.73
2022-11-05T06:55:33.152Z,99818.02
2022-11-05T06:58:00.812Z,99819.09
2022-11-05T07:00:28.262Z,99825.96
2022-11-05T07:02:58.909Z,99837.29
2022-11-05T07:05:26.869Z,99839.69
2022-11-05T07:07:54.209Z,99840.80
2022-11-05T07:10:21.370Z,99841.02
2022-11-05T07:12:48.734Z,99847.90
2022-11-05T07:15:16.141Z,99849.72
2022-11-05T07:17:43.230Z,99854.98
2022-11-05T07:20:11.381Z,99860.80
2022-11-05T07:22:38.943Z,99865.45
2022-11-05T07:25:07.117Z,99871.48
2022-11-05T07:27:40.519Z,99870.19
2022-11-05T07:30:09.277Z,99875.48
2022-11-05T07:32:40.562Z,99877.12
2022-11-05T07:35:09.367Z,99882.63
2022-11-05T07:37:46.995Z,99883.46
2022-11-05T07:40:15.312Z,99897.72
2022-11-05T07:42:47.068Z,99901.86
2022-11-05T07:45:15.154Z,99912.96
2022-11-05T07:47:50.335Z,99921.23
2022-11-05T07:50:19.476Z,99925.08
2022-11-05T07:52:49.003Z,99928.70
2022-11-05T07:55:17.224Z,99931.30
2022-11-05T07:57:48.930Z,99925.37
2022-11-05T08:00:20.277Z,99928.57
2022-11-05T08:03:20.596Z,99931.76
2022-11-05T08:05:48.660Z,99928.97
2022-11-05T08:08:18.173Z,99932.89
2022-11-05T08:10:45.946Z,99938.17
2022-11-05T08:13:13.962Z,99943.39
2022-11-05T08:15:43.057Z,99944.11
2022-11-05T08:18:18.242Z,99944.90
2022-11-05T08:20:47.147Z,99938.63
2022-11-05T08:23:15.041Z,99941.41
2022-11-05T08:25:42.658Z,99941.61
2022-11-05T08:28:12.559Z,99953.02
2022-11-05T08:30:39.912Z,99953.86
2022-11-05T08:33:10.756Z,99952.30
2022-11-05T08:35:40.406Z,99958.38
2022-11-05T08:38:09.429Z,99964.92
2022-11-05T08:40:38.238Z,99973.38
2022-11-05T08:43:07.264Z,99977.10
2022-11-05T08:45:38.226Z,99976.28
2022-11-05T08:48:15.262Z,99987.17
2022-11-05T08:50:43.549Z,99998.02
2022-11-05T08:53:11.862Z,100004.42
2022-11-05T08:55:39.268Z,100004.84
2022-11-05T08:58:11.243Z,100007.45
2022-11-05T09:00:39.496Z,100012.74
2022-11-05T09:03:09.241Z,100017.43
2022-11-05T09:05:38.731Z,100023.58
2022-11-05T09:08:11.935Z,100026.95
2022-11-05T09:10:40.911Z,100023.49
2022-11-05T09:13:11.741Z,100020.30
2022-11-05T09:15:42.053Z,100020.23
2022-11-05T09:18:12.559Z,100024.27
2022-11-05T09:20:40.561Z,100030.55
2022-11-05T09:23:09.184Z,100038.73
2022-11-05T09:25:36.812Z,100039.73
2022-11-05T09:28:21.782Z,100048.05
2022-11-05T09:30:53.017Z,100050.81
2022-11-05T09:33:22.775Z,100056.84
2022-11-05T09:35:50.401Z,100059.06
2022-11-05T09:38:18.171Z,100059.11
2022-11-05T09:41:04.771Z,100058.67
2022-11-05T09:43:54.017Z,100063.54
2022-11-05T09:46:26.183Z,100055.38
2022-11-05T09:48:56.677Z,100055.15
2022-11-05T09:51:24.384Z,100058.29
2022-11-05T09:53:52.035Z,100060.98
2022-11-05T09:56:26.069Z,100059.40
2022-11-05T09:59:34.490Z,100059.33
2022-11-05T10:02:10.562Z,100062.68
2022-11-05T10:04:38.329Z,100064.70
2022-11-05T10:07:07.085Z,100065.35
2022-11-05T10:09:43.351Z,100067.35
2022-11-05T10:12:21.148Z,100066.50
2022-11-05T10:14:52.671Z,100071.27
2022-11-05T10:17:24.682Z,100086.19
2022-11-05T10:20:29.608Z,100089.98
2022-11-05T10:23:00.734Z,100095.80
2022-11-05T10:25:33.467Z,100091.95
2022-11-05T10:28:00.968Z,100088.48
2022-11-05T10:30:28.113Z,100089.04
2022-11-05T10:32:58.769Z,100083.80
2022-11-05T10:35:27.749Z,100086.96
2022-11-05T10:37:54.787Z,100084.52
2022-11-05T10:40:44.063Z,100088.92
2022-11-05T10:43:26.213Z,100091.43
2022-11-05T10:46:01.093Z,100091.30
2022-11-05T10:48:48.848Z,100094.83
2022-11-05T10:51:17.030Z,100098.78
2022-11-05T10:53:53.241Z,100100.55
2022-11-05T10:56:35.665Z,100103.20
2022-11-05T10:59:09.402Z,100104.23
2022-11-05T11:01:39.699Z,100100.19
2022-11-05T11:04:07.055Z,100105.17
2022-11-05T11:06:38.394Z,100102.89
2022-11-05T11:09:20.079Z,100099.92
2022-11-05T11:11:59.929Z,100105.71
2022-11-05T11:14:27.900Z,100106.73
2022-11-05T11:16:58.035Z,100112.13
2022-11-05T11:19:33.612Z,100111.15
2022-11-05T11:22:03.865Z,100114.50
2022-11-05T11:24:37.575Z,100116.29
2022-11-05T11:27:28.497Z,100123.71
2022-11-05T11:29:57.818Z,100129.48
2022-11-05T11:32:28.360Z,100125.87
2022-11-05T11:34:57.520Z,100126.09
2022-11-05T11:37:45.071Z,100132.75
2022-11-05T11:40:17.787Z,100135.23
2022-11-05T11:42:47.973Z,100136.55
2022-11-05T11:45:40.522Z,100143.69
2022-11-05T11:48:12.997Z,100143.28
2022-11-05T11:50:46.841Z,100141.61
2022-11-05T11:53:34.135Z,100142.10
2022-11-05T11:56:15.505Z,100143.87
2022-11-05T11:58:48.688Z,100144.67
2022-11-05T12:01:19.243Z,100148.81
2022-11-05T12:04:08.070Z,100146.72
2022-11-05T12:06:55.281Z,100156.11
2022-11-05T12:09:28.504Z,100159.83
2022-11-05T12:12:02.433Z,100161.73
2022-11-05T12:14:57.292Z,100164.95
2022-11-05T12:17:30.677Z,100162.77
2022-11-05T12:20:17.079Z,100159.14
2022-11-05T12:23:02.770Z,100155.38
2022-11-05T12:25:36.584Z,100164.40
2022-11-05T12:28:11.213Z,100170.89
2022-11-05T12:31:03.955Z,100177.56
2022-11-05T12:34:02.133Z,100177.83
2022-11-05T12:36:41.457Z,100174.98
2022-11-05T12:39:25.621Z,100174.88
2022-11-05T12:42:02.418Z,100176.39
2022-11-05T12:44:30.347Z,100176.50
2022-11-05T12:47:24.050Z,100183.45
2022-11-05T12:50:00.016Z,100184.11
2022-11-05T12:52:54.693Z,100183.04
2022-11-05T12:55:24.870Z,100181.69
2022-11-05T12:58:02.060Z,100180.70
2022-11-05T13:00:30.374Z,100179.27
2022-11-05T13:03:16.155Z,100177.68
2022-11-05T13:06:08.341Z,100180.46
2022-11-05T13:09:08.669Z,100178.40
2022-11-05T13:11:56.759Z,100179.33
2022-11-05T13:14:54.207Z,100183.62
2022-11-05T13:17:28.604Z,100190.19
2022-11-05T13:20:29.664Z,100188.64
2022-11-05T13:23:01.148Z,100184.48
2022-11-05T13:25:32.928Z,100192.64
2022-11-05T13:28:11.516Z,100197.97
2022-11-05T13:30:43.849Z,100200.55
2022-11-05T13:33:16.447Z,100205.55
2022-11-05T13:36:17.540Z,100210.57
2022-11-05T13:39:00.171Z,100207.40
2022-11-05T13:41:28.102Z,100211.55
2022-11-05T13:44:07.908Z,100212.86
2022-11-05T13:46:46.958Z,100220.44
2022-11-05T13:49:48.499Z,100219.71
2022-11-05T13:53:10.409Z,100223.10
2022-11-05T13:55:56.642Z,100230.58
2022-11-05T13:58:58.499Z,100235.95
2022-11-05T14:01:44.112Z,100236.46
2022-11-05T14:04:33.039Z,100236.10
2022-11-05T14:07:30.693Z,100241.63
2022-11-05T14:10:01.902Z,100245.35
2022-11-05T14:12:32.771Z,100242.84
2022-11-05T14:15:04.779Z,100247.19
2022-11-05T14:17:57.911Z,100248.75
2022-11-05T14:20:31.400Z,100252.04
2022-11-05T14:23:37.874Z,100257.52
2022-11-05T14:26:20.417Z,100259.58
2022-11-05T14:28:52.549Z,100260.77
2022-11-05T14:31:19.809Z,100270.16
2022-11-05T14:34:03.949Z,100270.92
2022-11-05T14:36:33.442Z,100275.16
2022-11-05T14:39:14.749Z,100279.40
2022-11-05T14:42:04.112Z,100283.37
2022-11-05T14:44:35.327Z,100286.95
2022-11-05T14:47:05.978Z,100295.17
2022-11-05T14:50:12.188Z,100293.79
2022-11-05T14:52:40.724Z,100294.96
2022-11-05T14:55:29.778Z,100299.48
2022-11-05T14:57:57.052Z,100306.70
2022-11-05T15:00:30.367Z,100304.23
2022-11-05T15:03:24.954Z,100306.13
2022-11-05T15:05:53.734Z,100310.63
2022-11-05T15:08:25.581Z,100315.12
2022-11-05T15:10:54.996Z,100317.01
2022-11-05T15:13:32.301Z,100312.89
2022-11-05T15:16:00.133Z,100315.29
2022-11-05T15:18:34.331Z,100317.10
2022-11-05T15:21:03.155Z,100318.17
2022-11-05T15:23:39.085Z,100315.55
2022-11-05T15:26:32.569Z,100314.48
2022-11-05T15:28:59.927Z,100313.09
2022-11-05T15:31:42.075Z,100318.27
2022-11-05T15:34:32.980Z,100320.50
2022-11-05T15:37:02.921Z,100328.19
2022-11-05T15:39:38.464Z,100328.19
2022-11-05T15:42:12.675Z,100330.99
2022-11-05T15:44:45.807Z,100336.44
2022-11-05T15:47:24.599Z,100338.41
2022-11-05T15:49:54.595Z,100341.34
2022-11-05T15:52:48.579Z,100343.55
2022-11-05T15:55:20.480Z,100346.85
2022-11-05T15:57:51.598Z,100352.29
2022-11-05T16:00:25.658Z,100350.83
2022-11-05T16:03:04.558Z,100354.77
2022-11-05T16:05:34.770Z,100359.77
2022-11-05T16:08:04.663Z,100363.68
2022-11-05T16:10:37.867Z,100370.48
2022-11-05T16:13:39.737Z,100369.95
2022-11-05T16:16:16.508Z,100370.89
2022-11-05T16:18:44.986Z,100369.21
2022-11-05T16:21:23.098Z,100368.30
2022-11-05T16:23:50.772Z,100371.65
2022-11-05T16:27:00.466Z,100372.77
2022-11-05T16:29:26.857Z,100374.41
2022-11-05T16:31:55.839Z,100378.66
2022-11-05T16:34:25.960Z,100380.30
2022-11-05T16:36:57.876Z,100383.80
2022-11-05T16:39:26.797Z,100386.23
2022-11-05T16:41:54.362Z,100387.09
2022-11-05T16:44:21.721Z,100393.86
2022-11-05T16:46:51.019Z,100393.31
2022-11-05T16:49:19.596Z,100393.01
2022-11-05T16:51:47.778Z,100393.60
2022-11-05T16:54:16.072Z,100396.23
2022-11-05T16:56:48.747Z,100400.63
2022-11-05T16:59:16.598Z,100401.02
2022-11-05T17:01:45.247Z,100403.02
2022-11-05T17:04:14.052Z,100408.25
2022-11-05T17:06:42.053Z,100409.70
2022-11-05T17:09:09.285Z,100409.10
2022-11-05T17:11:36.546Z,100410.67
2022-11-05T17:14:04.526Z,100416.00
2022-11-05T17:16:32.585Z,100419.80
2022-11-05T17:19:00.642Z,100416.98
2022-11-05T17:21:29.845Z,100419.05
2022-11-05T17:23:57.729Z,100424.54
2022-11-05T17:26:26.290Z,100429.13
2022-11-05T17:28:54.490Z,100431.46
2022-11-05T17:31:21.831Z,100433.16
2022-11-05T17:33:50.610Z,100431.55
2022-11-05T17:36:18.791Z,100434.50
2022-11-05T17:38:46.452Z,100436.50
2022-11-05T17:41:15.770Z,100439.09
2022-11-05T17:43:44.010Z,100435.92
2022-11-05T17:46:13.550Z,100435.05
2022-11-05T17:48:41.945Z,100432.64
2022-11-05T17:51:12.002Z,100436.38
2022-11-05T17:53:40.097Z,100440.55
2022-11-05T17:56:12.460Z,100442.81
2022-11-05T17:58:40.829Z,100449.67
2022-11-05T18:01:09.852Z,100454.12
2022-11-05T18:03:37.798Z,100457.99
2022-11-05T18:06:07.468Z,100456.66
2022-11-05T18:08:35.588Z,100465.48
2022-11-05T18:11:03.957Z,100467.48
2022-11-05T18:13:32.149Z,100463.84
2022-11-05T18:15:59.698Z,100465.55
2022-11-05T18:18:28.352Z,100470.81
2022-11-05T18:21:00.516Z,100472.20
2022-11-05T18:23:30.379Z,100473.80
2022-11-05T18:25:58.646Z,100474.70
2022-11-05T18:28:27.249Z,100473.27
2022-11-05T18:30:55.607Z,100477.27
2022-11-05T18:33:24.088Z,100477.77
2022-11-05T18:35:53.291Z,100480.01
2022-11-05T18:38:22.870Z,100483.92
2022-11-05T18:40:50.944Z,100489.08
2022-11-05T18:43:19.222Z,100495.38
2022-11-05T18:45:46.588Z,100495.64
2022-11-05T18:48:14.884Z,100497.80
2022-11-05T18:50:42.231Z,100497.98
2022-11-05T18:53:10.291Z,100495.56
2022-11-05T18:55:40.366Z,100499.73
2022-11-05T18:58:08.591Z,100504.02
2022-11-05T19:00:40.253Z,100508.34
2022-11-05T19:03:08.604Z,100513.83
2022-11-05T19:05:37.090Z,100522.04
2022-11-05T19:08:05.645Z,100522.45
2022-11-05T19:10:33.638Z,100525.40
2022-11-05T19:13:03.525Z,100527.94
2022-11-05T19:15:31.629Z,100532.67
2022-11-05T19:17:59.610Z,100535.33
2022-11-05T19:20:28.135Z,100541.14
2022-11-05T19:22:56.150Z,100544.14
2022-11-05T19:25:24.228Z,100549.80
2022-11-05T19:27:53.509Z,100549.88
2022-11-05T19:30:21.587Z,100552.81
2022-11-05T19:32:50.472Z,100553.48
2022-11-05T19:35:19.406Z,100555.94
2022-11-05T19:37:47.460Z,100561.88
2022-11-05T19:40:15.524Z,100561.20
2022-11-05T19:42:43.475Z,100560.04
2022-11-05T19:45:38.187Z,100566.15
2022-11-05T19:47:59.810Z,100565.18
2022-11-05T19:50:29.006Z,100569.38
2022-11-05T19:52:56.990Z,100571.32
2022-11-05T19:55:25.648Z,100573.15
2022-11-05T19:57:55.470Z,100572.36
2022-11-05T20:00:23.451Z,100574.02
2022-11-05T20:02:52.652Z,100578.13
2022-11-05T20:05:20.708Z,100576.76
2022-11-05T20:07:52.730Z,100576.34
2022-11-05T20:10:21.674Z,100574.25
2022-11-05T20:12:50.049Z,100572.15
2022-11-05T20:15:20.140Z,100578.70
2022-11-05T20:17:54.932Z,100577.64
2022-11-05T20:20:22.921Z,100574.11
2022-11-05T20:22:53.575Z,100575.39
2022-11-05T20:25:21.833Z,100575.81
2022-11-05T20:27:50.750Z,100573.77
2022-11-05T20:30:19.560Z,100573.21
2022-11-05T20:32:47.484Z,100574.10
2022-11-05T20:35:15.767Z,100570.86
2022-11-05T20:37:43.548Z,100575.41
2022-11-05T20:40:14.871Z,100576.84
2022-11-05T20:42:43.792Z,100582.13
2022-11-05T20:45:12.534Z,100582.17
2022-11-05T20:47:41.205Z,100583.67
2022-11-05T20:50:11.771Z,100585.31
2022-11-05T20:52:40.013Z,100586.91
2022-11-05T20:55:09.989Z,100589.88
2022-11-05T20:57:39.189Z,100594.36
2022-11-05T21:00:09.952Z,100596.37
2022-11-05T21:02:40.298Z,100597.98
2022-11-05T21:05:10.211Z,100596.27
2022-11-05T21:07:38.236Z,100599.84
2022-11-05T21:10:07.329Z,100600.42
2022-11-05T21:12:35.179Z,100604.11
2022-11-05T21:15:03.970Z,100600.64
2022-11-05T21:17:31.815Z,100596.13
2022-11-05T21:19:59.701Z,100596.17
2022-11-05T21:22:27.759Z,100595.27
2022-11-05T21:24:57.254Z,100593.25
2022-11-05T21:27:25.214Z,100595.44
2022-11-05T21:29:53.005Z,100596.00
2022-11-05T21:32:21.187Z,100598.77
2022-11-05T21:34:48.662Z,100598.42
2022-11-05T21:37:16.920Z,100601.46
2022-11-05T21:39:44.946Z,100602.86
2022-11-05T21:42:12.887Z,100604.50
2022-11-05T21:44:41.187Z,100600.99
2022-11-05T21:47:10.220Z,100597.35
2022-11-05T21:49:37.365Z,100596.23
2022-11-05T21:52:23.887Z,100596.84
2022-11-05T21:55:10.586Z,100599.02
2022-11-05T21:57:57.604Z,100601.52
2022-11-05T22:00:25.159Z,100597.62
2022-11-05T22:02:52.606Z,100599.04
2022-11-05T22:05:20.386Z,100600.38
2022-11-05T22:07:47.532Z,100601.98
2022-11-05T22:10:16.696Z,100604.59
2022-11-05T22:12:45.309Z,100604.28
2022-11-05T22:15:13.493Z,100607.70
2022-11-05T22:17:46.221Z,100607.08
2022-11-05T22:20:14.945Z,100603.85
2022-11-05T22:22:42.308Z,100602.61
2022-11-05T22:25:09.736Z,100598.45
2022-11-05T22:27:37.006Z,100598.91
2022-11-05T22:30:04.597Z,100602.54
2022-11-05T22:32:32.023Z,100606.73
2022-11-05T22:34:59.286Z,100607.27
2022-11-05T22:37:26.380Z,100607.34
2022-11-05T22:39:53.529Z,100608.09
2022-11-05T22:42:20.718Z,100610.13
2022-11-05T22:44:47.855Z,100609.35
2022-11-05T22:47:15.046Z,100608.77
2022-11-05T22:49:42.242Z,100617.20
2022-11-05T22:52:09.290Z,100619.14
2022-11-05T22:54:39.387Z,100618.94
2022-11-05T22:57:07.188Z,100620.66
2022-11-05T22:59:34.649Z,100626.25
2022-11-05T23:02:09.225Z,100625.65
2022-11-05T23:04:38.073Z,100623.73
2022-11-05T23:07:27.653Z,100620.92
2022-11-05T23:10:15.189Z,100619.83
2022-11-05T23:12:44.171Z,100619.12
2022-11-05T23:15:31.993Z,100620.70
2022-11-05T23:18:17.998Z,100617.89
2022-11-05T23:21:03.988Z,100614.55
2022-11-05T23:23:49.756Z,100615.48
2022-11-05T23:26:36.490Z,100615.85
2022-11-05T23:29:04.781Z,100617.48
2022-11-05T23:31:51.176Z,100619.50
2022-11-05T23:34:18.809Z,100617.83
2022-11-05T23:37:04.452Z,100618.48
2022-11-05T23:39:31.971Z,100621.71
2022-11-05T23:42:18.366Z,100622.36
2022-11-05T23:45:04.549Z,100626.00
2022-11-05T23:47:50.557Z,100622.16
2022-11-05T23:50:19.046Z,100618.88
2022-11-05T23:52:46.275Z,100618.10
2022-11-05T23:55:13.512Z,100620.20
2022-11-05T23:57:41.167Z,100623.90
